Time;durP1;ratioP1;P1;durP2;ratioP2;P2;SDS_P1;SDS_P2;PMS_P1;PMS_P2;Temp;Humidity;BMP_temperature;BMP_pressure;BME280_temperature;BME280_humidity;BME280_pressure;Samples;Min_cycle;Max_cycle;Signal;HPM_P1;HPM_P2
2022/10/16 00:01:15;;;;;;;17.60;13.57;;;18.90;73.30;;;;;;6163325;23;20561;-80
2022/10/16 00:03:47;;;;;;;17.88;13.52;;;18.80;73.30;;;;;;6188470;23;20131;-80
2022/10/16 00:06:19;;;;;;;17.10;13.73;;;18.80;73.30;;;;;;6137987;23;20162;-81
2022/10/16 00:08:45;;;;;;;19.02;14.32;;;18.80;73.30;;;;;;6114120;23;20168;-80
2022/10/16 00:11:18;;;;;;;18.60;14.15;;;18.80;73.30;;;;;;6188178;23;20552;-81
2022/10/16 00:13:45;;;;;;;17.40;13.10;;;18.80;73.40;;;;;;6138246;23;20159;-81
2022/10/16 00:16:16;;;;;;;17.45;13.90;;;18.90;73.50;;;;;;6188325;23;20135;-80
2022/10/16 00:18:42;;;;;;;17.38;13.40;;;18.80;73.30;;;;;;6163204;23;20180;-81
2022/10/16 00:21:15;;;;;;;17.95;13.82;;;18.80;73.30;;;;;;6162949;23;20240;-81
2022/10/16 00:23:46;;;;;;;17.38;13.50;;;18.80;73.30;;;;;;6163370;23;20158;-80
2022/10/16 00:26:13;;;;;;;19.60;13.90;;;18.80;73.30;;;;;;6138216;23;20155;-80
2022/10/16 00:28:39;;;;;;;16.80;13.00;;;18.80;73.40;;;;;;6188519;23;20154;-81
2022/10/16 00:31:12;;;;;;;17.30;13.20;;;18.80;73.30;;;;;;6188689;23;20139;-81
2022/10/16 00:33:38;;;;;;;19.00;13.65;;;18.80;73.30;;;;;;6114096;23;20329;-80
2022/10/16 00:36:05;;;;;;;17.58;13.65;;;18.80;73.40;;;;;;6163500;23;20601;-81
2022/10/16 00:38:31;;;;;;;19.40;13.52;;;18.80;73.40;;;;;;6163781;23;20154;-80
2022/10/16 00:40:57;;;;;;;17.38;13.05;;;18.80;73.30;;;;;;6188030;23;20542;-81
2022/10/16 00:43:39;;;;;;;18.30;13.35;;;18.80;73.40;;;;;;6188897;23;20158;-81
2022/10/16 00:46:25;;;;;;;17.83;13.10;;;18.80;73.30;;;;;;6162899;23;20153;-80
2022/10/16 00:49:02;;;;;;;18.00;13.73;;;18.80;73.30;;;;;;6189890;23;20139;-80
2022/10/16 00:51:33;;;;;;;18.92;14.23;;;18.80;73.30;;;;;;6163040;23;20493;-81
2022/10/16 00:53:59;;;;;;;18.23;13.85;;;18.80;73.30;;;;;;6187767;23;20135;-80
2022/10/16 00:56:29;;;;;;;17.83;13.32;;;18.80;73.30;;;;;;6187792;23;20131;-80
2022/10/16 00:58:56;;;;;;;18.33;13.30;;;18.80;73.30;;;;;;6138287;23;20151;-80
2022/10/16 01:01:22;;;;;;;18.10;13.93;;;18.80;73.30;;;;;;6163530;23;20208;-81
2022/10/16 01:03:51;;;;;;;18.77;13.38;;;18.80;73.40;;;;;;6188193;23;20177;-81
2022/10/16 01:06:46;;;;;;;17.17;13.18;;;18.80;73.40;;;;;;6162372;23;20173;-81
2022/10/16 01:09:36;;;;;;;18.95;13.73;;;18.80;73.40;;;;;;6188893;23;20658;-81
2022/10/16 01:12:14;;;;;;;18.55;13.90;;;18.70;73.30;;;;;;6164659;23;20146;-81
2022/10/16 01:15:07;;;;;;;16.75;13.00;;;18.80;73.40;;;;;;6137949;23;20517;-80
2022/10/16 01:17:49;;;;;;;17.33;13.07;;;18.80;73.40;;;;;;6189294;23;20555;-80
2022/10/16 01:20:37;;;;;;;18.85;14.00;;;18.70;73.40;;;;;;6162653;23;20507;-80
2022/10/16 01:23:27;;;;;;;16.77;12.88;;;18.80;73.40;;;;;;6187937;23;20137;-80
2022/10/16 01:26:19;;;;;;;17.13;13.55;;;18.80;73.40;;;;;;6165791;23;20473;-80
2022/10/16 01:28:55;;;;;;;17.63;13.75;;;18.80;73.40;;;;;;6189408;23;20178;-80
2022/10/16 01:31:24;;;;;;;18.30;13.32;;;18.80;73.30;;;;;;6187710;23;20135;-81
2022/10/16 01:33:57;;;;;;;17.55;13.18;;;18.80;73.30;;;;;;6187299;23;20621;-80
2022/10/16 01:36:34;;;;;;;17.77;13.50;;;18.80;73.30;;;;;;6163782;23;20142;-81
2022/10/16 01:39:10;;;;;;;18.60;13.43;;;18.90;73.50;;;;;;6163251;23;20196;-81
2022/10/16 01:41:48;;;;;;;18.20;13.30;;;18.80;73.40;;;;;;6137639;23;20186;-80
2022/10/16 01:44:19;;;;;;;16.15;12.77;;;18.80;73.40;;;;;;6188051;23;20145;-81
2022/10/16 01:46:50;;;;;;;17.90;13.52;;;18.80;73.40;;;;;;6162535;23;20485;-81
2022/10/16 01:49:20;;;;;;;17.85;13.35;;;18.70;73.40;;;;;;6137612;23;20150;-80
2022/10/16 01:51:51;;;;;;;17.58;13.15;;;18.70;73.40;;;;;;6137773;23;20258;-80
2022/10/16 01:54:17;;;;;;;19.95;14.45;;;18.70;73.40;;;;;;6113474;23;20178;-81
2022/10/16 01:56:48;;;;;;;18.60;13.60;;;18.70;73.40;;;;;;6187338;23;20138;-81
2022/10/16 01:59:15;;;;;;;18.42;13.52;;;18.70;73.40;;;;;;6162043;23;20598;-81
2022/10/16 02:01:48;;;;;;;17.92;13.32;;;18.70;73.40;;;;;;6162460;23;20265;-81
2022/10/16 02:04:22;;;;;;;17.63;13.75;;;18.70;73.40;;;;;;6138156;23;20465;-80
2022/10/16 02:06:55;;;;;;;17.10;13.40;;;18.70;73.40;;;;;;6162174;23;20150;-80
2022/10/16 02:09:27;;;;;;;18.02;13.23;;;18.70;73.40;;;;;;6137680;23;20151;-81
2022/10/16 02:11:57;;;;;;;16.95;13.25;;;18.70;73.30;;;;;;6161547;23;20186;-81
2022/10/16 02:14:24;;;;;;;17.77;13.48;;;18.70;73.30;;;;;;6161590;23;20155;-80
2022/10/16 02:16:50;;;;;;;16.58;12.32;;;18.70;73.40;;;;;;6162196;23;20151;-80
2022/10/16 02:19:21;;;;;;;18.00;13.60;;;18.70;73.30;;;;;;6187079;23;20159;-80
2022/10/16 02:22:01;;;;;;;15.93;12.80;;;18.70;73.30;;;;;;6136989;23;20186;-80
2022/10/16 02:24:32;;;;;;;16.17;12.73;;;18.70;73.40;;;;;;6162875;23;20566;-80
2022/10/16 02:27:11;;;;;;;17.17;12.68;;;18.70;73.40;;;;;;6187342;23;20147;-81
2022/10/16 02:29:40;;;;;;;17.50;12.85;;;18.70;73.30;;;;;;6162208;23;20225;-80
2022/10/16 02:32:07;;;;;;;18.80;13.40;;;18.70;73.30;;;;;;6162359;23;20182;-80
2022/10/16 02:34:33;;;;;;;17.40;12.73;;;18.70;73.40;;;;;;6186438;23;20538;-80
2022/10/16 02:37:03;;;;;;;17.50;12.82;;;18.70;73.30;;;;;;6162510;23;20155;-80
2022/10/16 02:39:33;;;;;;;18.38;13.25;;;18.70;73.30;;;;;;6161346;23;20150;-81
2022/10/16 02:42:09;;;;;;;18.10;13.68;;;18.70;73.30;;;;;;6136878;23;20190;-80
2022/10/16 02:44:35;;;;;;;17.90;13.52;;;18.70;73.30;;;;;;6137423;23;20151;-80
2022/10/16 02:47:05;;;;;;;16.42;13.20;;;18.70;73.40;;;;;;6189113;23;20195;-81
2022/10/16 02:49:31;;;;;;;18.48;13.05;;;18.70;73.30;;;;;;6161497;23;20154;-81
2022/10/16 02:52:01;;;;;;;16.13;12.35;;;18.70;73.30;;;;;;6162126;23;20154;-80
2022/10/16 02:54:31;;;;;;;17.13;13.07;;;18.70;73.40;;;;;;6136370;23;20157;-81
2022/10/16 02:56:57;;;;;;;16.67;12.80;;;18.70;73.40;;;;;;6136657;23;20154;-80
2022/10/16 02:59:23;;;;;;;16.85;12.52;;;18.70;73.50;;;;;;6186664;23;20467;-80
2022/10/16 03:01:53;;;;;;;17.80;13.32;;;18.70;73.40;;;;;;6186330;23;20166;-81
2022/10/16 03:04:19;;;;;;;16.83;12.63;;;18.70;73.40;;;;;;6137149;23;20213;-80
2022/10/16 03:06:45;;;;;;;18.20;13.50;;;18.70;73.40;;;;;;6186583;23;20563;-81
2022/10/16 03:09:17;;;;;;;16.75;12.93;;;18.70;73.40;;;;;;6187524;23;20574;-80
2022/10/16 03:11:43;;;;;;;17.15;13.18;;;18.70;74.20;;;;;;6112203;23;20185;-80
2022/10/16 03:14:09;;;;;;;18.33;13.57;;;18.70;73.30;;;;;;6162149;23;20587;-81
2022/10/16 03:16:35;;;;;;;16.80;12.95;;;18.70;73.40;;;;;;6162089;23;20178;-80
2022/10/16 03:19:01;;;;;;;17.35;12.95;;;18.70;73.40;;;;;;6162250;23;20143;-80
2022/10/16 03:21:27;;;;;;;17.98;13.18;;;18.70;73.40;;;;;;6186693;23;20162;-81
2022/10/16 03:23:53;;;;;;;19.30;13.40;;;18.70;73.30;;;;;;6186313;23;20127;-81
2022/10/16 03:26:19;;;;;;;18.13;13.52;;;18.70;73.40;;;;;;6162078;23;20170;-81
2022/10/16 03:28:49;;;;;;;16.95;13.32;;;18.70;73.30;;;;;;6162281;23;20498;-80
2022/10/16 03:31:20;;;;;;;17.98;13.27;;;18.70;73.40;;;;;;6137590;23;20158;-80
2022/10/16 03:33:46;;;;;;;16.38;12.55;;;18.70;73.40;;;;;;6161248;23;20217;-81
2022/10/16 03:36:12;;;;;;;16.00;12.00;;;18.70;73.40;;;;;;6138127;23;20149;-81
2022/10/16 03:38:37;;;;;;;17.17;12.98;;;18.60;73.30;;;;;;6186172;23;20131;-80
2022/10/16 03:41:04;;;;;;;17.83;13.50;;;18.60;73.30;;;;;;6186021;23;20221;-80
2022/10/16 03:43:33;;;;;;;18.75;13.30;;;18.70;73.40;;;;;;6186358;23;20145;-81
2022/10/16 03:46:03;;;;;;;16.27;12.77;;;18.70;73.40;;;;;;6136397;23;20158;-81
2022/10/16 03:48:33;;;;;;;16.52;12.90;;;18.70;73.40;;;;;;6161068;23;20186;-81
2022/10/16 03:51:03;;;;;;;17.52;13.40;;;18.70;73.40;;;;;;6160751;23;20170;-80
2022/10/16 03:53:33;;;;;;;17.45;13.05;;;18.70;73.40;;;;;;6136042;23;20209;-80
2022/10/16 03:56:00;;;;;;;16.38;12.55;;;18.70;73.50;;;;;;6136411;23;20533;-80
2022/10/16 03:58:31;;;;;;;15.98;12.25;;;18.60;73.40;;;;;;6186694;23;20135;-80
2022/10/16 04:01:01;;;;;;;17.60;12.98;;;18.70;73.30;;;;;;6160320;23;20186;-80
2022/10/16 04:03:27;;;;;;;17.60;13.07;;;18.70;73.40;;;;;;6160732;23;20155;-81
2022/10/16 04:05:53;;;;;;;17.58;13.02;;;18.70;73.30;;;;;;6186091;23;20142;-81
2022/10/16 04:08:19;;;;;;;17.95;13.05;;;18.70;73.40;;;;;;6162341;23;20170;-81
2022/10/16 04:10:45;;;;;;;16.90;13.20;;;18.60;73.30;;;;;;6161580;23;20165;-81
2022/10/16 04:13:15;;;;;;;16.58;12.23;;;18.70;73.30;;;;;;6162189;23;20178;-80
2022/10/16 04:15:48;;;;;;;16.55;12.80;;;18.70;73.40;;;;;;6160824;23;20150;-81
2022/10/16 04:18:19;;;;;;;17.13;13.00;;;18.70;73.30;;;;;;6136302;23;20147;-81
2022/10/16 04:20:49;;;;;;;17.98;12.75;;;18.70;73.30;;;;;;6160833;23;20185;-80
2022/10/16 04:23:15;;;;;;;17.85;12.68;;;18.70;73.30;;;;;;6135875;23;20198;-81
2022/10/16 04:25:41;;;;;;;15.82;12.65;;;18.70;73.40;;;;;;6188467;23;20166;-80
2022/10/16 04:28:11;;;;;;;15.73;12.27;;;18.60;73.30;;;;;;6161594;23;20151;-80
2022/10/16 04:30:39;;;;;;;15.80;12.38;;;18.70;73.40;;;;;;6160824;23;20587;-80
2022/10/16 04:33:05;;;;;;;17.13;12.52;;;18.70;73.40;;;;;;6186717;23;20158;-81
2022/10/16 04:35:30;;;;;;;16.23;12.38;;;18.70;73.40;;;;;;6191235;23;20562;-81
2022/10/16 04:38:01;;;;;;;16.48;12.15;;;18.70;73.40;;;;;;6190790;23;20209;-80
2022/10/16 04:40:42;;;;;;;17.15;12.85;;;18.70;73.40;;;;;;6165716;23;20178;-81
2022/10/16 04:43:08;;;;;;;15.23;11.77;;;18.70;73.40;;;;;;6143211;23;20208;-80
2022/10/16 04:45:34;;;;;;;16.40;12.13;;;18.70;73.40;;;;;;6168058;23;20142;-81
2022/10/16 04:48:00;;;;;;;16.77;12.85;;;18.60;73.30;;;;;;6192907;23;20257;-80
2022/10/16 04:50:26;;;;;;;16.70;12.48;;;18.70;73.30;;;;;;6193036;23;20137;-81
2022/10/16 04:52:52;;;;;;;15.30;11.68;;;18.60;73.30;;;;;;6193020;23;20474;-81
2022/10/16 04:55:18;;;;;;;17.27;12.65;;;18.60;73.30;;;;;;6192987;23;20134;-80
2022/10/16 04:57:44;;;;;;;17.48;13.10;;;18.60;73.30;;;;;;6168307;23;20467;-80
2022/10/16 05:00:11;;;;;;;16.83;12.57;;;18.60;73.30;;;;;;6192455;23;20636;-81
2022/10/16 05:02:41;;;;;;;17.23;12.80;;;18.60;73.30;;;;;;6193198;23;20558;-80
2022/10/16 05:05:14;;;;;;;15.38;11.90;;;18.70;73.40;;;;;;6118524;23;20160;-81
2022/10/16 05:07:39;;;;;;;17.27;12.38;;;18.60;73.30;;;;;;6143083;23;20164;-81
2022/10/16 05:10:09;;;;;;;15.82;11.68;;;18.70;73.30;;;;;;6167805;23;20154;-80
2022/10/16 05:12:35;;;;;;;15.57;12.13;;;18.60;73.30;;;;;;6167172;23;20244;-80
2022/10/16 05:15:05;;;;;;;16.52;12.75;;;18.60;73.30;;;;;;6192462;23;20636;-80
2022/10/16 05:17:38;;;;;;;15.75;12.15;;;18.60;73.30;;;;;;6142999;23;20477;-81
2022/10/16 05:20:08;;;;;;;16.55;12.10;;;18.60;73.30;;;;;;6142460;23;20518;-80
2022/10/16 05:22:40;;;;;;;15.02;11.30;;;18.60;73.30;;;;;;6192321;23;20468;-80
2022/10/16 05:25:06;;;;;;;15.32;11.70;;;18.60;73.20;;;;;;6142357;23;20181;-80
2022/10/16 05:27:32;;;;;;;17.00;12.23;;;18.60;73.20;;;;;;6192734;23;20122;-81
2022/10/16 05:29:59;;;;;;;15.15;11.43;;;18.60;73.20;;;;;;6192798;23;20130;-80
2022/10/16 05:32:28;;;;;;;16.70;12.57;;;18.70;73.20;;;;;;6219397;23;20140;-81
2022/10/16 05:34:54;;;;;;;14.70;12.15;;;18.60;73.10;;;;;;6166573;23;20202;-80
2022/10/16 05:37:20;;;;;;;16.50;12.60;;;18.60;73.20;;;;;;6168230;23;20573;-80
2022/10/16 05:39:46;;;;;;;15.88;12.07;;;18.70;73.20;;;;;;6167626;23;20629;-80
2022/10/16 05:42:16;;;;;;;15.95;11.57;;;18.60;73.20;;;;;;6192469;23;20501;-81
2022/10/16 05:44:42;;;;;;;14.50;11.48;;;18.60;73.20;;;;;;6095152;23;20150;-80
2022/10/16 05:47:07;;;;;;;15.40;11.63;;;18.60;73.20;;;;;;6193708;23;20189;-80
2022/10/16 05:49:33;;;;;;;15.10;11.55;;;18.60;73.10;;;;;;6192880;23;20123;-80
2022/10/16 05:52:03;;;;;;;15.77;11.80;;;18.70;73.30;;;;;;6192585;23;20576;-81
2022/10/16 05:54:32;;;;;;;15.85;11.90;;;18.60;73.20;;;;;;6168663;23;20138;-81
2022/10/16 05:56:59;;;;;;;16.33;11.93;;;18.60;73.20;;;;;;6193076;23;20137;-81
2022/10/16 05:59:26;;;;;;;15.68;12.32;;;18.60;73.20;;;;;;6193360;23;20210;-80
2022/10/16 06:01:53;;;;;;;15.20;11.80;;;18.60;73.20;;;;;;6193128;23;20189;-81
2022/10/16 06:04:57;;;;;;;15.05;11.88;;;18.60;73.10;;;;;;6197913;23;20164;-81
2022/10/16 06:08:02;;;;;;;17.13;12.13;;;18.60;73.10;;;;;;6085855;23;20157;-81
2022/10/16 06:11:09;;;;;;;16.52;12.27;;;18.70;73.00;;;;;;6089355;23;20149;-80
2022/10/16 06:13:48;;;;;;;;;;;;;;;;;;;;;
2022/10/16 06:16:28;;;;;;;15.98;11.52;;;18.60;73.10;;;;;;5860211;24;20195;-80
2022/10/16 06:18:55;;;;;;;16.40;11.93;;;18.60;73.10;;;;;;5909564;24;20194;-80
2022/10/16 06:21:34;;;;;;;16.95;12.20;;;18.60;73.10;;;;;;5887309;24;20193;-81
2022/10/16 06:24:00;;;;;;;16.52;12.63;;;18.60;73.00;;;;;;5885833;24;20162;-82
2022/10/16 06:26:31;;;;;;;15.35;11.82;;;18.70;73.20;;;;;;5885414;24;20189;-81
2022/10/16 06:29:49;;;;;;;14.55;11.27;;;18.70;73.00;;;;;;5906477;24;20177;-82
2022/10/16 06:32:25;;;;;;;;;;;;;;;;;;;;;
2022/10/16 06:39:41;;;;;;;13.60;11.23;;;18.70;72.90;;;;;;5765441;24;20179;-85
2022/10/16 06:42:59;;;;;;;15.30;11.57;;;18.70;72.90;;;;;;5791361;24;20206;-85
2022/10/16 06:45:45;;;;;;;17.23;12.77;;;18.70;73.00;;;;;;5818636;24;20163;-84
2022/10/16 06:48:10;;;;;;;15.50;12.00;;;18.70;72.90;;;;;;5810061;24;20218;-83
2022/10/16 06:50:36;;;;;;;15.38;11.98;;;18.70;72.90;;;;;;5876157;24;20158;-85
2022/10/16 06:53:18;;;;;;;16.02;11.95;;;18.70;73.00;;;;;;5880747;24;20173;-85
2022/10/16 06:55:44;;;;;;;14.90;11.02;;;18.70;73.00;;;;;;5846694;24;20165;-84
2022/10/16 06:58:15;;;;;;;16.13;12.07;;;18.70;73.00;;;;;;5853159;24;20205;-85
2022/10/16 07:01:02;;;;;;;15.38;11.70;;;18.60;72.90;;;;;;5822905;24;20310;-87
2022/10/16 07:03:27;;;;;;;14.98;11.57;;;18.70;73.10;;;;;;5854751;24;20638;-84
2022/10/16 07:05:53;;;;;;;15.50;11.30;;;18.70;72.90;;;;;;5896287;24;20212;-84
2022/10/16 07:08:21;;;;;;;15.43;11.45;;;18.70;72.90;;;;;;5929693;24;20232;-86
2022/10/16 07:10:47;;;;;;;15.35;10.95;;;18.70;72.80;;;;;;5932293;24;20156;-84
2022/10/16 07:13:14;;;;;;;14.90;11.27;;;18.70;72.80;;;;;;5932788;24;20156;-84
2022/10/16 07:15:40;;;;;;;14.77;10.77;;;18.80;72.80;;;;;;6033400;23;20156;-87
2022/10/16 07:18:08;;;;;;;15.82;12.00;;;18.70;72.80;;;;;;6102086;23;20148;-82
2022/10/16 07:20:34;;;;;;;12.95;10.32;;;18.80;72.50;;;;;;6100544;23;20177;-83
2022/10/16 07:23:06;;;;;;;12.68;9.40;;;18.80;72.00;;;;;;6069172;23;20157;-85
2022/10/16 07:25:40;;;;;;;12.82;9.45;;;18.90;71.80;;;;;;6021032;23;20152;-82
2022/10/16 07:28:13;;;;;;;12.10;9.45;;;18.90;71.60;;;;;;6047871;23;20163;-82
2022/10/16 07:30:51;;;;;;;12.02;8.55;;;19.00;71.40;;;;;;6050629;23;20164;-82
2022/10/16 07:33:24;;;;;;;12.32;8.77;;;18.90;71.20;;;;;;6052473;23;20614;-82
2022/10/16 07:35:56;;;;;;;11.65;9.38;;;19.00;71.10;;;;;;6130457;23;20221;-85
2022/10/16 07:38:23;;;;;;;11.75;8.82;;;19.00;71.10;;;;;;6111579;23;20155;-83
2022/10/16 07:40:58;;;;;;;11.48;8.85;;;19.00;71.20;;;;;;6185101;23;20652;-83
2022/10/16 07:43:28;;;;;;;11.05;8.40;;;19.10;71.30;;;;;;6152745;23;20151;-84
2022/10/16 07:45:59;;;;;;;10.02;8.13;;;19.00;71.20;;;;;;6056825;23;20156;-83
2022/10/16 07:48:35;;;;;;;9.77;8.07;;;19.00;71.20;;;;;;6107404;23;20195;-83
2022/10/16 07:51:09;;;;;;;10.75;8.52;;;19.00;71.00;;;;;;6054489;23;20163;-82
2022/10/16 07:53:35;;;;;;;9.07;7.90;;;19.00;71.00;;;;;;6081878;23;20156;-82
2022/10/16 07:56:03;;;;;;;9.98;7.90;;;19.00;71.00;;;;;;6104087;23;20179;-81
2022/10/16 07:58:36;;;;;;;9.95;8.20;;;19.00;70.90;;;;;;6108972;23;20659;-82
2022/10/16 08:01:08;;;;;;;10.98;7.82;;;19.10;70.90;;;;;;6051086;23;20710;-81
2022/10/16 08:03:35;;;;;;;9.88;8.30;;;19.10;70.80;;;;;;6025266;23;20149;-83
2022/10/16 08:06:04;;;;;;;10.20;7.45;;;19.10;70.70;;;;;;6041683;23;20241;-83
2022/10/16 08:08:30;;;;;;;10.48;7.60;;;19.10;70.70;;;;;;5997089;23;20509;-80
2022/10/16 08:11:05;;;;;;;10.70;8.10;;;19.10;70.80;;;;;;5993894;23;20161;-83
2022/10/16 08:13:31;;;;;;;10.38;8.15;;;19.10;70.70;;;;;;5981358;23;20159;-83
2022/10/16 08:15:57;;;;;;;9.23;7.38;;;19.00;70.70;;;;;;5957293;24;20507;-83
2022/10/16 08:18:26;;;;;;;10.35;7.05;;;19.00;70.70;;;;;;5959402;24;20198;-85
2022/10/16 08:21:00;;;;;;;10.25;7.18;;;19.00;70.50;;;;;;5983558;24;20242;-85
2022/10/16 08:23:35;;;;;;;11.32;6.95;;;19.00;70.50;;;;;;5959372;24;20246;-84
2022/10/16 08:26:07;;;;;;;8.93;7.22;;;19.00;70.50;;;;;;5999128;23;20153;-83
2022/10/16 08:29:52;;;;;;;9.52;7.63;;;19.00;70.30;;;;;;6035058;23;20177;-84
2022/10/16 08:32:36;;;;;;;8.45;7.00;;;19.10;70.60;;;;;;5929372;24;20164;-83
2022/10/16 08:35:05;;;;;;;8.90;7.07;;;19.00;70.70;;;;;;5908756;24;20286;-83
2022/10/16 08:37:35;;;;;;;9.48;7.47;;;19.00;70.60;;;;;;5981434;24;20167;-83
2022/10/16 08:40:17;;;;;;;8.60;7.38;;;19.00;70.50;;;;;;5960000;24;20166;-82
2022/10/16 08:43:24;;;;;;;9.73;7.28;;;19.00;70.60;;;;;;5969597;23;20151;-83
2022/10/16 08:46:15;;;;;;;8.90;6.97;;;19.00;70.50;;;;;;6057344;23;20153;-82
2022/10/16 08:49:09;;;;;;;8.07;6.63;;;19.00;70.50;;;;;;6075120;23;20164;-82
2022/10/16 08:51:42;;;;;;;7.45;6.55;;;19.00;70.40;;;;;;6097935;23;20211;-83
2022/10/16 08:54:36;;;;;;;8.82;6.82;;;19.00;70.30;;;;;;6098198;23;20204;-81
2022/10/16 08:57:14;;;;;;;10.15;7.18;;;19.00;70.30;;;;;;6073324;23;20153;-81
2022/10/16 08:59:39;;;;;;;10.13;7.03;;;19.00;70.30;;;;;;6099106;23;20152;-82
2022/10/16 09:02:24;;;;;;;8.40;6.40;;;19.00;70.20;;;;;;6140530;23;20205;-82
2022/10/16 09:05:40;;;;;;;7.35;6.00;;;19.00;70.30;;;;;;6161539;23;20237;-84
2022/10/16 09:08:42;;;;;;;8.88;7.07;;;19.00;70.10;;;;;;6122693;23;20155;-82
2022/10/16 09:11:19;;;;;;;7.35;6.05;;;19.00;70.10;;;;;;6170510;23;20142;-83
2022/10/16 09:14:18;;;;;;;6.88;5.90;;;19.10;69.90;;;;;;6161498;23;20217;-83
2022/10/16 09:17:21;;;;;;;8.73;6.05;;;19.10;69.90;;;;;;6117170;23;20158;-82
2022/10/16 09:20:12;;;;;;;6.50;5.60;;;19.10;69.90;;;;;;6124531;23;20158;-83
2022/10/16 09:22:45;;;;;;;7.53;5.63;;;19.10;69.70;;;;;;6166866;23;20143;-82
2022/10/16 09:25:20;;;;;;;6.75;5.32;;;19.10;69.80;;;;;;6063172;23;20155;-82
2022/10/16 09:27:53;;;;;;;6.15;5.10;;;19.10;69.50;;;;;;6111982;23;20165;-82
2022/10/16 09:30:22;;;;;;;5.95;5.32;;;19.10;69.40;;;;;;6162303;23;20165;-82
2022/10/16 09:33:00;;;;;;;5.97;5.13;;;19.10;69.40;;;;;;6065868;23;20241;-83
2022/10/16 09:35:55;;;;;;;6.80;5.40;;;19.10;69.40;;;;;;6043721;23;20662;-82
2022/10/16 09:38:28;;;;;;;6.07;5.15;;;19.10;69.20;;;;;;5958152;24;20497;-84
2022/10/16 09:41:00;;;;;;;7.07;5.65;;;19.10;69.10;;;;;;5954809;24;20187;-82
2022/10/16 09:43:38;;;;;;;5.88;4.75;;;19.10;69.10;;;;;;5930401;24;20183;-84
2022/10/16 09:46:08;;;;;;;6.05;5.03;;;19.10;69.00;;;;;;5955073;24;20166;-84
2022/10/16 09:48:44;;;;;;;7.78;5.07;;;19.10;68.90;;;;;;5926595;24;20160;-84
2022/10/16 09:51:20;;;;;;;6.07;5.22;;;19.20;68.70;;;;;;5881053;24;20176;-82
2022/10/16 09:53:46;;;;;;;7.03;5.20;;;19.10;68.90;;;;;;5908941;24;20183;-82
2022/10/16 09:56:21;;;;;;;6.30;4.85;;;19.20;69.00;;;;;;5904005;24;20156;-82
2022/10/16 09:58:59;;;;;;;5.28;4.75;;;19.20;68.90;;;;;;5884894;24;20516;-83
2022/10/16 10:01:41;;;;;;;5.90;4.57;;;19.20;69.70;;;;;;5903915;24;20244;-83
2022/10/16 10:04:10;;;;;;;5.82;4.60;;;19.20;68.80;;;;;;5850690;24;20162;-84
2022/10/16 10:06:54;;;;;;;6.88;4.65;;;19.20;68.70;;;;;;5872237;24;20576;-83
2022/10/16 10:09:46;;;;;;;7.70;5.40;;;19.20;68.70;;;;;;5907289;24;20164;-82
2022/10/16 10:12:21;;;;;;;6.93;4.82;;;19.20;68.90;;;;;;5908586;24;20225;-81
2022/10/16 10:15:21;;;;;;;5.22;4.50;;;19.20;68.70;;;;;;5952820;23;20534;-82
2022/10/16 10:17:52;;;;;;;6.32;4.78;;;19.20;68.30;;;;;;6006010;23;20154;-84
2022/10/16 10:20:34;;;;;;;4.63;3.92;;;19.20;68.20;;;;;;6061936;23;20159;-82
2022/10/16 10:23:21;;;;;;;4.63;4.05;;;19.20;68.00;;;;;;6077976;23;20183;-82
2022/10/16 10:26:11;;;;;;;6.30;4.28;;;19.20;67.80;;;;;;6125386;23;20215;-82
2022/10/16 10:29:16;;;;;;;5.15;4.22;;;19.30;67.70;;;;;;6126187;23;20155;-84
2022/10/16 10:32:06;;;;;;;5.65;4.00;;;19.20;67.70;;;;;;6145439;23;20574;-83
2022/10/16 10:35:06;;;;;;;6.22;4.07;;;19.20;67.40;;;;;;6164281;23;20584;-84
2022/10/16 10:37:54;;;;;;;4.75;4.32;;;19.30;67.20;;;;;;6165066;23;20158;-82
2022/10/16 10:40:40;;;;;;;5.60;3.80;;;19.20;67.00;;;;;;6216733;23;20170;-82
2022/10/16 10:43:34;;;;;;;4.47;3.95;;;19.20;66.80;;;;;;6164955;23;20146;-83
2022/10/16 10:46:06;;;;;;;5.25;4.03;;;19.30;66.90;;;;;;6132146;23;20154;-82
2022/10/16 10:48:59;;;;;;;4.47;3.90;;;19.30;66.80;;;;;;6100799;23;20160;-83
2022/10/16 10:51:44;;;;;;;4.00;3.60;;;19.30;66.70;;;;;;6083409;23;20171;-82
2022/10/16 10:54:37;;;;;;;5.18;3.55;;;19.30;66.70;;;;;;6085344;23;20160;-83
2022/10/16 10:57:21;;;;;;;6.55;3.50;;;19.20;66.50;;;;;;6043937;23;20252;-82
2022/10/16 11:00:24;;;;;;;4.13;3.20;;;19.20;66.30;;;;;;6063740;23;20509;-82
2022/10/16 11:03:03;;;;;;;3.90;3.33;;;19.20;66.30;;;;;;6116602;23;20171;-84
2022/10/16 11:05:50;;;;;;;4.45;3.03;;;19.30;66.30;;;;;;6106205;23;20148;-82
2022/10/16 11:09:00;;;;;;;5.50;3.70;;;19.20;66.20;;;;;;6079827;23;20152;-84
2022/10/16 11:11:40;;;;;;;5.38;3.67;;;19.30;66.50;;;;;;6094724;23;20151;-84
2022/10/16 11:21:00;;;;;;;4.60;3.42;;;19.20;66.40;;;;;;5950603;24;20188;-84
2022/10/16 11:23:52;;;;;;;5.25;3.70;;;19.30;66.60;;;;;;5906138;24;20160;-83
2022/10/16 11:26:39;;;;;;;3.83;3.25;;;19.20;66.40;;;;;;5930200;24;20160;-84
2022/10/16 11:29:20;;;;;;;6.60;3.38;;;19.20;66.30;;;;;;5952402;24;20238;-83
2022/10/16 11:32:32;;;;;;;3.90;3.08;;;19.30;66.30;;;;;;5952882;24;20596;-88
2022/10/16 11:35:18;;;;;;;4.43;3.40;;;19.20;66.10;;;;;;5924632;24;20232;-84
2022/10/16 11:38:41;;;;;;;4.70;3.65;;;19.20;66.00;;;;;;5904351;24;20164;-84
2022/10/16 11:41:33;;;;;;;5.75;3.22;;;19.20;65.90;;;;;;5875233;24;20661;-83
2022/10/16 11:47:48;;;;;;;3.70;3.40;;;19.20;65.70;;;;;;5771626;24;20247;-85
2022/10/16 11:50:37;;;;;;;4.05;3.35;;;19.20;65.50;;;;;;5797060;24;20163;-85
2022/10/16 11:56:26;;;;;;;5.38;3.30;;;19.20;65.50;;;;;;5790935;24;20163;-83
2022/10/16 11:59:00;;;;;;;3.40;3.10;;;19.20;65.50;;;;;;5811742;24;20177;-85
2022/10/16 12:01:53;;;;;;;3.45;3.15;;;19.20;65.30;;;;;;5899330;24;20189;-83
2022/10/16 12:04:45;;;;;;;3.83;3.40;;;19.20;65.20;;;;;;5871774;24;20158;-83
2022/10/16 12:08:02;;;;;;;3.60;3.20;;;19.20;65.20;;;;;;5846150;24;20163;-85
2022/10/16 12:10:38;;;;;;;4.45;3.60;;;19.20;65.00;;;;;;5844304;24;20545;-83
2022/10/16 12:13:46;;;;;;;4.50;3.03;;;19.20;65.20;;;;;;5839215;24;20470;-83
2022/10/16 12:16:32;;;;;;;4.65;3.05;;;19.20;65.40;;;;;;5881867;24;20164;-81
2022/10/16 12:19:20;;;;;;;4.28;3.30;;;19.20;65.10;;;;;;5977185;23;20159;-85
2022/10/16 12:21:56;;;;;;;3.88;3.25;;;19.20;65.00;;;;;;5933942;24;20183;-82
2022/10/16 12:24:34;;;;;;;3.97;3.40;;;19.20;65.00;;;;;;5892432;24;20226;-84
2022/10/16 12:27:09;;;;;;;3.92;3.28;;;19.20;65.00;;;;;;5870693;24;20643;-83
2022/10/16 12:29:38;;;;;;;4.25;3.20;;;19.20;64.90;;;;;;5895790;24;20178;-85
2022/10/16 12:32:35;;;;;;;3.78;3.22;;;19.20;64.90;;;;;;5924840;24;20146;-83
2022/10/16 12:35:02;;;;;;;3.35;3.00;;;19.20;64.80;;;;;;6008108;23;20599;-83
2022/10/16 12:37:34;;;;;;;4.80;3.38;;;19.20;64.70;;;;;;5961815;23;20162;-83
2022/10/16 12:40:17;;;;;;;3.13;2.83;;;19.20;64.70;;;;;;5985543;23;20159;-83
2022/10/16 12:46:36;;;;;;;3.83;3.42;;;19.20;64.50;;;;;;5924829;24;20160;-83
2022/10/16 12:49:25;;;;;;;3.97;3.30;;;19.10;64.60;;;;;;5904149;24;20167;-84
2022/10/16 12:52:30;;;;;;;4.20;2.95;;;19.20;64.50;;;;;;5878450;24;20169;-83
2022/10/16 12:55:00;;;;;;;4.22;3.58;;;19.10;64.40;;;;;;5934570;24;20159;-84
2022/10/16 12:57:55;;;;;;;3.72;3.22;;;19.20;64.60;;;;;;5926002;24;20605;-85
2022/10/16 13:00:45;;;;;;;5.43;3.45;;;19.10;64.50;;;;;;5927496;24;20165;-84
2022/10/16 13:03:43;;;;;;;4.10;3.40;;;19.10;64.60;;;;;;5931639;24;20184;-81
2022/10/16 13:06:47;;;;;;;3.80;3.40;;;19.20;64.70;;;;;;5951253;24;20605;-83
2022/10/16 13:09:33;;;;;;;3.95;3.42;;;19.20;64.70;;;;;;5931656;24;20227;-83
2022/10/16 13:12:25;;;;;;;4.68;2.97;;;19.20;64.60;;;;;;5905384;24;20605;-85
2022/10/16 13:15:22;;;;;;;4.35;3.30;;;19.10;64.60;;;;;;5891951;24;20159;-84
2022/10/16 13:18:05;;;;;;;5.82;3.60;;;19.20;64.70;;;;;;5981243;23;20163;-85
2022/10/16 13:20:58;;;;;;;4.10;3.30;;;19.20;64.80;;;;;;5979811;24;20584;-85
2022/10/16 13:23:58;;;;;;;4.50;3.70;;;19.20;64.80;;;;;;6013709;23;20153;-82
2022/10/16 13:29:52;;;;;;;3.65;3.30;;;19.20;64.80;;;;;;6073696;23;20153;-82
2022/10/16 13:32:29;;;;;;;3.97;3.25;;;19.20;64.80;;;;;;6003085;23;20157;-85
2022/10/16 13:34:58;;;;;;;3.72;3.33;;;19.20;64.70;;;;;;6029096;23;20276;-80
2022/10/16 13:37:28;;;;;;;4.22;3.65;;;19.20;64.70;;;;;;6077088;23;20163;-82
2022/10/16 13:40:20;;;;;;;3.83;3.35;;;19.20;64.70;;;;;;6051291;23;20188;-84
2022/10/16 13:42:53;;;;;;;4.35;3.67;;;19.20;64.60;;;;;;5981376;23;20165;-85
2022/10/16 13:45:21;;;;;;;4.95;3.35;;;19.20;65.50;;;;;;6027060;23;20312;-87
2022/10/16 13:47:47;;;;;;;3.30;3.00;;;19.20;64.50;;;;;;5972951;23;20272;-83
2022/10/16 13:50:16;;;;;;;3.53;3.13;;;19.20;64.50;;;;;;5991902;23;20150;-82